createdAt,value
2023-02-04T00:01:41.932Z,0.10
2023-02-04T00:04:09.700Z,0.07
2023-02-04T00:06:37.468Z,0.10
2023-02-04T00:09:05.575Z,0.10
2023-02-04T00:11:34.687Z,0.10
2023-02-04T00:14:02.463Z,0.27
2023-02-04T00:16:30.405Z,0.13
2023-02-04T00:18:58.337Z,0.00
2023-02-04T00:21:26.121Z,0.13
2023-02-04T00:23:56.512Z,0.50
2023-02-04T00:26:24.424Z,0.10
2023-02-04T00:28:53.573Z,0.10
2023-02-04T00:31:21.420Z,0.10
2023-02-04T00:33:49.278Z,0.20
2023-02-04T00:36:17.037Z,0.20
2023-02-04T00:38:44.839Z,0.30
2023-02-04T00:41:12.764Z,0.10
2023-02-04T00:43:40.624Z,0.10
2023-02-04T00:46:09.890Z,0.10
2023-02-04T00:48:37.756Z,0.10
2023-02-04T00:51:05.652Z,0.20
2023-02-04T00:53:33.516Z,0.20
2023-02-04T00:56:01.338Z,0.30
2023-02-04T00:58:29.155Z,0.10
2023-02-04T01:00:56.999Z,0.20
2023-02-04T01:03:26.186Z,0.10
2023-02-04T01:05:53.945Z,0.20
2023-02-04T01:08:21.819Z,0.10
2023-02-04T01:10:49.679Z,0.10
2023-02-04T01:13:17.493Z,0.17
2023-02-04T01:15:45.300Z,0.13
2023-02-04T01:18:13.579Z,0.20
2023-02-04T01:20:42.676Z,0.23
2023-02-04T01:23:10.528Z,0.10
2023-02-04T01:25:38.295Z,0.23
2023-02-04T01:28:06.301Z,0.20
2023-02-04T01:30:34.205Z,0.10
2023-02-04T01:33:02.024Z,0.20
2023-02-04T01:35:29.791Z,0.20
2023-02-04T01:37:58.967Z,0.20
2023-02-04T01:40:26.961Z,0.30
2023-02-04T01:42:55.288Z,0.10
2023-02-04T01:45:23.182Z,0.10
2023-02-04T01:47:51.143Z,0.20
2023-02-04T01:50:19.304Z,0.10
2023-02-04T01:52:47.890Z,0.20
2023-02-04T01:55:18.994Z,0.10
2023-02-04T01:57:47.098Z,0.10
2023-02-04T02:00:18.281Z,0.20
2023-02-04T02:02:47.884Z,0.10
2023-02-04T02:05:18.734Z,0.30
2023-02-04T02:07:46.546Z,0.10
2023-02-04T02:10:15.721Z,0.17
2023-02-04T02:12:45.873Z,0.10
2023-02-04T02:15:14.457Z,0.27
2023-02-04T02:17:42.399Z,0.20
2023-02-04T02:20:12.408Z,0.00
2023-02-04T02:22:48.369Z,0.30
2023-02-04T02:25:17.850Z,0.10
2023-02-04T02:27:46.085Z,0.03
2023-02-04T02:30:17.614Z,0.10
2023-02-04T02:32:46.367Z,0.00
2023-02-04T02:35:15.513Z,0.17
2023-02-04T02:37:43.477Z,0.10
2023-02-04T02:40:12.746Z,0.17
2023-02-04T02:42:43.420Z,0.20
2023-02-04T02:45:16.541Z,0.07
2023-02-04T02:47:44.331Z,0.17
2023-02-04T02:50:16.638Z,0.13
2023-02-04T02:52:44.656Z,0.10
2023-02-04T02:55:17.502Z,0.20
2023-02-04T02:57:48.875Z,0.20
2023-02-04T03:00:18.476Z,0.20
2023-02-04T03:02:49.471Z,0.20
2023-02-04T03:05:17.389Z,0.10
2023-02-04T03:07:45.236Z,0.10
2023-02-04T03:10:13.153Z,0.30
2023-02-04T03:12:40.974Z,0.20
2023-02-04T03:15:10.903Z,0.10
2023-02-04T03:17:38.823Z,0.13
2023-02-04T03:20:08.469Z,0.13
2023-02-04T03:22:36.410Z,0.10
2023-02-04T03:25:04.401Z,0.10
2023-02-04T03:27:32.241Z,0.10
2023-02-04T03:30:00.046Z,0.40
2023-02-04T03:32:29.206Z,0.40
2023-02-04T03:34:56.984Z,0.10
2023-02-04T03:37:24.789Z,0.20
2023-02-04T03:39:52.611Z,0.10
2023-02-04T03:42:20.371Z,0.57
2023-02-04T03:44:48.128Z,0.10
2023-02-04T03:47:15.856Z,0.10
2023-02-04T03:49:44.949Z,0.20
2023-02-04T03:52:12.710Z,0.10
2023-02-04T03:54:40.524Z,0.03
2023-02-04T03:57:08.329Z,0.20
2023-02-04T03:59:36.102Z,0.10
2023-02-04T04:02:03.899Z,0.10
2023-02-04T04:04:31.722Z,0.13
2023-02-04T04:07:00.896Z,0.20
2023-02-04T04:09:29.504Z,0.10
2023-02-04T04:11:57.472Z,0.10
2023-02-04T04:14:25.261Z,0.00
2023-02-04T04:16:53.039Z,0.07
2023-02-04T04:19:20.808Z,0.00
2023-02-04T04:21:48.640Z,0.10
2023-02-04T04:24:17.728Z,0.17
2023-02-04T04:26:45.583Z,0.10
2023-02-04T04:29:13.356Z,0.10
2023-02-04T04:31:41.250Z,0.20
2023-02-04T04:34:09.112Z,0.20
2023-02-04T04:36:36.896Z,0.00
2023-02-04T04:39:05.080Z,0.20
2023-02-04T04:41:34.188Z,0.20
2023-02-04T04:44:01.950Z,0.60
2023-02-04T04:46:29.899Z,0.27
2023-02-04T04:48:57.713Z,0.20
2023-02-04T04:51:25.485Z,0.20
2023-02-04T04:53:53.224Z,0.30
2023-02-04T04:56:21.009Z,0.50
2023-02-04T04:58:50.086Z,0.10
2023-02-04T05:01:17.901Z,0.20
2023-02-04T05:03:46.253Z,0.20
2023-02-04T05:06:17.155Z,0.20
2023-02-04T05:08:44.909Z,0.23
2023-02-04T05:11:12.684Z,0.30
2023-02-04T05:13:40.440Z,0.30
2023-02-04T05:16:12.033Z,0.30
2023-02-04T05:18:39.924Z,0.10
2023-02-04T05:21:08.291Z,0.30
2023-02-04T05:23:36.108Z,0.80
2023-02-04T05:26:03.912Z,0.30
2023-02-04T05:28:31.689Z,0.20
2023-02-04T05:30:59.605Z,0.30
2023-02-04T05:33:28.783Z,0.20
2023-02-04T05:35:56.615Z,0.27
2023-02-04T05:38:24.356Z,0.10
2023-02-04T05:40:52.204Z,0.20
2023-02-04T05:43:19.985Z,0.20
2023-02-04T05:45:47.832Z,0.20
2023-02-04T05:48:15.632Z,0.23
2023-02-04T05:50:44.777Z,0.30
2023-02-04T05:53:12.553Z,0.10
2023-02-04T05:55:42.428Z,0.20
2023-02-04T05:58:10.205Z,0.20
2023-02-04T06:00:38.064Z,0.20
2023-02-04T06:03:06.340Z,0.40
2023-02-04T06:05:34.252Z,0.30
2023-02-04T06:08:03.365Z,0.17
2023-02-04T06:10:31.454Z,0.20
2023-02-04T06:12:59.545Z,0.30
2023-02-04T06:15:27.302Z,0.20
2023-02-04T06:17:55.071Z,0.30
2023-02-04T06:20:22.831Z,0.20
2023-02-04T06:22:51.657Z,0.40
2023-02-04T06:25:20.869Z,0.13
2023-02-04T06:27:48.665Z,0.40
2023-02-04T06:30:17.041Z,0.30
2023-02-04T06:32:45.048Z,0.20
2023-02-04T06:35:13.228Z,0.27
2023-02-04T06:37:41.095Z,0.10
2023-02-04T06:40:10.585Z,0.20
2023-02-04T06:42:39.765Z,0.23
2023-02-04T06:45:10.276Z,0.30
2023-02-04T06:47:38.126Z,0.10
2023-02-04T06:50:06.231Z,0.30
2023-02-04T06:52:33.998Z,0.60
2023-02-04T06:55:01.762Z,0.13
2023-02-04T06:57:29.578Z,0.20
2023-02-04T06:59:58.699Z,0.13
2023-02-04T07:02:28.582Z,0.20
2023-02-04T07:04:56.351Z,0.10
2023-02-04T07:07:24.110Z,0.17
2023-02-04T07:09:51.869Z,0.40
2023-02-04T07:12:19.747Z,0.47
2023-02-04T07:14:47.548Z,0.37
2023-02-04T07:17:16.638Z,0.50
2023-02-04T07:19:44.409Z,0.30
2023-02-04T07:22:12.287Z,0.40
2023-02-04T07:24:42.261Z,0.10
2023-02-04T07:27:10.022Z,0.30
2023-02-04T07:29:37.805Z,0.30
2023-02-04T07:32:08.617Z,0.50
2023-02-04T07:34:37.787Z,0.70
2023-02-04T07:37:05.764Z,0.40
2023-02-04T07:39:33.521Z,0.40
2023-02-04T07:42:01.253Z,0.20
2023-02-04T07:44:29.034Z,0.30
2023-02-04T07:46:56.838Z,0.27
2023-02-04T07:49:24.647Z,0.40
2023-02-04T07:51:53.787Z,0.30
2023-02-04T07:54:21.557Z,0.47
2023-02-04T07:56:49.386Z,0.30
2023-02-04T07:59:17.351Z,0.23
2023-02-04T08:01:45.175Z,0.50
2023-02-04T08:04:12.961Z,0.10
2023-02-04T08:06:40.756Z,0.57
2023-02-04T08:09:09.991Z,0.50
2023-02-04T08:11:37.811Z,0.57
2023-02-04T08:14:07.690Z,0.53
2023-02-04T08:16:35.559Z,0.50
2023-02-04T08:19:03.326Z,0.27
2023-02-04T08:21:31.085Z,0.33
2023-02-04T08:23:58.834Z,0.80
2023-02-04T08:26:27.995Z,0.60
2023-02-04T08:28:56.378Z,0.47
2023-02-04T08:31:24.304Z,0.80
2023-02-04T08:33:52.158Z,0.40
2023-02-04T08:36:19.919Z,0.70
2023-02-04T08:38:47.691Z,0.30
2023-02-04T08:41:15.651Z,0.50
2023-02-04T08:43:44.727Z,0.50
2023-02-04T08:46:12.573Z,0.70
2023-02-04T08:48:40.370Z,0.30
2023-02-04T08:51:08.197Z,0.40
2023-02-04T08:53:36.032Z,0.50
2023-02-04T08:56:03.846Z,0.43
2023-02-04T08:58:31.695Z,0.40
2023-02-04T09:01:00.867Z,0.50
2023-02-04T09:03:29.052Z,0.23
2023-02-04T09:05:56.837Z,0.40
2023-02-04T09:08:24.695Z,0.53
2023-02-04T09:10:52.448Z,0.50
2023-02-04T09:13:20.228Z,0.60
2023-02-04T09:15:48.004Z,0.50
2023-02-04T09:18:19.159Z,0.70
2023-02-04T09:20:47.391Z,0.47
2023-02-04T09:23:15.568Z,0.40
2023-02-04T09:25:45.012Z,0.63
2023-02-04T09:28:14.177Z,0.50
2023-02-04T09:30:43.483Z,0.50
2023-02-04T09:33:13.532Z,0.50
2023-02-04T09:35:42.853Z,0.53
2023-02-04T09:38:10.941Z,0.37
2023-02-04T09:40:43.401Z,0.50
2023-02-04T09:43:15.686Z,0.33
2023-02-04T09:45:43.510Z,0.50
2023-02-04T09:48:14.328Z,0.30
2023-02-04T09:50:43.527Z,0.23
2023-02-04T09:53:17.422Z,0.30
2023-02-04T09:55:47.556Z,0.17
2023-02-04T09:58:17.440Z,0.10
2023-02-04T10:00:46.136Z,0.30
2023-02-04T10:03:16.966Z,0.23
2023-02-04T10:05:47.332Z,0.30
2023-02-04T10:08:17.384Z,0.70
2023-02-04T10:10:46.220Z,0.30
2023-02-04T10:13:19.286Z,0.20
2023-02-04T10:15:48.836Z,0.20
2023-02-04T10:18:28.458Z,0.20
2023-02-04T10:21:01.755Z,0.30
2023-02-04T10:23:29.650Z,0.10
2023-02-04T10:25:57.425Z,0.30
2023-02-04T10:28:34.768Z,0.60
2023-02-04T10:31:02.682Z,0.43
2023-02-04T10:33:31.674Z,0.53
2023-02-04T10:36:00.764Z,0.50
2023-02-04T10:38:28.535Z,0.33
2023-02-04T10:41:05.751Z,0.30
2023-02-04T10:43:33.791Z,0.53
2023-02-04T10:46:05.997Z,0.27
2023-02-04T10:48:41.570Z,0.43
2023-02-04T10:51:13.736Z,0.30
2023-02-04T10:54:13.820Z,0.20
2023-02-04T10:56:41.860Z,0.30
2023-02-04T10:59:21.928Z,0.30
2023-02-04T11:01:49.917Z,0.23
2023-02-04T11:04:17.722Z,0.30
2023-02-04T11:06:46.995Z,0.17
2023-02-04T11:09:15.744Z,0.30
2023-02-04T11:11:47.780Z,0.30
2023-02-04T11:14:28.140Z,0.20
2023-02-04T11:17:00.734Z,0.20
2023-02-04T11:19:35.572Z,0.10
2023-02-04T11:22:21.907Z,0.13
2023-02-04T11:24:50.421Z,0.23
2023-02-04T11:27:24.474Z,0.10
2023-02-04T11:29:52.869Z,0.30
2023-02-04T11:32:33.129Z,0.10
2023-02-04T11:35:25.281Z,0.20
2023-02-04T11:37:55.882Z,0.30
2023-02-04T11:40:27.326Z,0.43
2023-02-04T11:43:00.250Z,0.50
2023-02-04T11:45:31.114Z,0.60
2023-02-04T11:48:01.778Z,0.30
2023-02-04T11:50:31.554Z,0.40
2023-02-04T11:53:02.858Z,0.30
2023-02-04T11:55:37.515Z,0.20
2023-02-04T11:58:07.281Z,0.20
2023-02-04T12:00:35.216Z,0.47
2023-02-04T12:03:07.840Z,0.30
2023-02-04T12:05:41.853Z,0.30
2023-02-04T12:08:25.373Z,0.30
2023-02-04T12:11:02.305Z,0.10
2023-02-04T12:13:31.573Z,0.20
2023-02-04T12:16:01.882Z,0.37
2023-02-04T12:18:30.681Z,0.20
2023-02-04T12:20:59.070Z,0.20
2023-02-04T12:23:29.973Z,0.23
2023-02-04T12:25:59.331Z,0.30
2023-02-04T12:28:28.929Z,0.40
2023-02-04T12:30:56.907Z,0.10
2023-02-04T12:33:24.816Z,0.83
2023-02-04T12:35:52.861Z,0.80
2023-02-04T12:38:21.179Z,0.30
2023-02-04T12:40:50.294Z,0.20
2023-02-04T12:43:18.025Z,0.17
2023-02-04T12:45:49.578Z,0.33
2023-02-04T12:48:17.377Z,0.20
2023-02-04T12:50:46.062Z,0.33
2023-02-04T12:53:13.853Z,0.30
2023-02-04T12:55:41.623Z,0.30
2023-02-04T12:58:10.754Z,0.30
2023-02-04T13:00:38.754Z,0.13
2023-02-04T13:03:06.546Z,0.33
2023-02-04T13:05:35.943Z,0.50
2023-02-04T13:08:03.819Z,0.20
2023-02-04T13:10:31.781Z,0.40
2023-02-04T13:13:00.794Z,0.20
2023-02-04T13:15:31.527Z,0.37
2023-02-04T13:17:59.775Z,0.20
2023-02-04T13:20:27.554Z,0.40
2023-02-04T13:22:55.304Z,0.47
2023-02-04T13:25:23.101Z,0.30
2023-02-04T13:27:50.925Z,0.63
2023-02-04T13:30:19.335Z,0.30
2023-02-04T13:32:48.721Z,0.20
2023-02-04T13:35:16.539Z,0.33
2023-02-04T13:37:44.462Z,0.20
2023-02-04T13:40:13.336Z,0.30
2023-02-04T13:42:41.128Z,0.20
2023-02-04T13:45:12.476Z,0.40
2023-02-04T13:47:40.415Z,0.40
2023-02-04T13:50:10.456Z,0.20
2023-02-04T13:52:38.228Z,0.30
2023-02-04T13:55:06.974Z,0.60
2023-02-04T13:57:34.815Z,0.20
2023-02-04T14:00:02.600Z,0.30
2023-02-04T14:02:30.465Z,0.40
2023-02-04T14:04:58.626Z,0.20
2023-02-04T14:07:27.751Z,0.40
2023-02-04T14:09:55.509Z,0.40
2023-02-04T14:12:23.379Z,0.40
2023-02-04T14:14:51.186Z,0.47
2023-02-04T14:17:19.028Z,0.30
2023-02-04T14:19:46.790Z,0.30
2023-02-04T14:22:14.638Z,0.23
2023-02-04T14:24:44.658Z,0.20
2023-02-04T14:27:12.513Z,0.30
2023-02-04T14:29:40.261Z,0.17
2023-02-04T14:32:08.397Z,0.30
2023-02-04T14:34:36.166Z,0.40
2023-02-04T14:37:03.918Z,0.30
2023-02-04T14:39:31.731Z,0.20
2023-02-04T14:42:04.349Z,0.30
2023-02-04T14:44:33.040Z,0.30
2023-02-04T14:47:00.777Z,0.30
2023-02-04T14:49:28.522Z,0.50
2023-02-04T14:51:56.868Z,0.50
2023-02-04T14:54:24.788Z,0.47
2023-02-04T14:56:52.573Z,0.40
2023-02-04T14:59:21.666Z,0.30
2023-02-04T15:01:49.419Z,0.30
2023-02-04T15:04:18.462Z,0.30
2023-02-04T15:06:46.964Z,0.20
2023-02-04T15:09:14.751Z,0.40
2023-02-04T15:11:46.373Z,0.63
2023-02-04T15:14:14.275Z,0.20
2023-02-04T15:16:44.588Z,0.30
2023-02-04T15:19:12.415Z,0.50
2023-02-04T15:21:40.197Z,0.20
2023-02-04T15:24:08.017Z,0.30
2023-02-04T15:26:35.862Z,0.30
2023-02-04T15:29:03.925Z,0.20
2023-02-04T15:31:32.562Z,0.30
2023-02-04T15:34:02.041Z,0.30
2023-02-04T15:36:29.881Z,0.40
2023-02-04T15:38:57.646Z,0.70
2023-02-04T15:41:25.519Z,0.20
2023-02-04T15:43:53.254Z,0.20
2023-02-04T15:46:21.098Z,0.30
2023-02-04T15:48:49.071Z,0.10
2023-02-04T15:51:18.762Z,0.43
2023-02-04T15:53:46.539Z,0.13
2023-02-04T15:56:14.398Z,0.30
2023-02-04T15:58:42.160Z,0.20
2023-02-04T16:01:09.983Z,0.20
2023-02-04T16:03:37.959Z,0.50
2023-02-04T16:06:06.168Z,0.23
2023-02-04T16:08:35.266Z,0.50
2023-02-04T16:11:04.333Z,0.30
2023-02-04T16:13:33.623Z,0.50
2023-02-04T16:16:01.449Z,0.70
2023-02-04T16:18:29.357Z,1.10
2023-02-04T16:20:57.134Z,0.43
2023-02-04T16:23:24.932Z,0.57
2023-02-04T16:25:54.049Z,0.50
2023-02-04T16:28:21.980Z,0.43
2023-02-04T16:30:49.954Z,0.50
2023-02-04T16:33:17.791Z,0.70
2023-02-04T16:36:00.778Z,0.87
2023-02-04T16:38:28.789Z,0.70
2023-02-04T16:40:58.535Z,0.60
2023-02-04T16:43:26.352Z,0.40
2023-02-04T16:45:54.192Z,0.40
2023-02-04T16:48:22.140Z,0.40
2023-02-04T16:50:49.929Z,0.40
2023-02-04T16:53:17.767Z,0.40
2023-02-04T16:55:47.826Z,0.33
2023-02-04T16:58:17.240Z,0.53
2023-02-04T17:00:45.035Z,0.30
2023-02-04T17:03:13.707Z,0.53
2023-02-04T17:05:42.436Z,0.43
2023-02-04T17:08:12.592Z,0.70
2023-02-04T17:10:58.972Z,0.30
2023-02-04T17:13:28.439Z,0.40
2023-02-04T17:16:00.651Z,0.60
2023-02-04T17:18:29.948Z,0.60
2023-02-04T17:20:58.165Z,0.33
2023-02-04T17:23:26.820Z,0.30
2023-02-04T17:25:54.664Z,0.30
2023-02-04T17:28:23.247Z,0.53
2023-02-04T17:30:52.845Z,0.50
2023-02-04T17:33:20.699Z,0.93
2023-02-04T17:35:48.684Z,0.40
2023-02-04T17:38:16.566Z,0.30
2023-02-04T17:40:44.448Z,0.53
2023-02-04T17:43:12.274Z,0.53
2023-02-04T17:45:40.160Z,0.23
2023-02-04T17:48:09.542Z,0.40
2023-02-04T17:50:39.979Z,0.37
2023-02-04T17:53:09.028Z,0.60
2023-02-04T17:55:39.423Z,0.70
2023-02-04T17:58:14.320Z,0.40
2023-02-04T18:00:43.883Z,0.53
2023-02-04T18:03:15.417Z,0.60
2023-02-04T18:05:46.694Z,0.80
2023-02-04T18:08:16.493Z,0.70
2023-02-04T18:10:45.594Z,1.17
2023-02-04T18:13:16.502Z,2.03
2023-02-04T18:15:47.248Z,2.03
2023-02-04T18:18:25.263Z,3.90
2023-02-04T18:20:59.168Z,2.30
2023-02-04T18:23:29.688Z,1.90
2023-02-04T18:26:02.272Z,1.50
2023-02-04T18:28:30.051Z,0.80
2023-02-04T18:31:01.065Z,0.97
2023-02-04T18:33:33.255Z,0.60
2023-02-04T18:36:03.103Z,0.77
2023-02-04T18:38:37.117Z,0.43
2023-02-04T18:41:22.762Z,0.93
2023-02-04T18:43:51.935Z,1.20
2023-02-04T18:46:25.750Z,1.43
2023-02-04T18:49:08.750Z,1.40
2023-02-04T18:51:40.257Z,0.60
2023-02-04T18:54:36.648Z,0.73
2023-02-04T18:57:38.117Z,1.20
2023-02-04T19:00:34.452Z,0.73
2023-02-04T19:03:18.680Z,0.60
2023-02-04T19:05:49.814Z,0.77
2023-02-04T19:08:41.614Z,0.90
2023-02-04T19:11:26.139Z,0.60
2023-02-04T19:13:58.017Z,1.30
2023-02-04T19:16:27.733Z,0.90
2023-02-04T19:18:56.397Z,0.87
2023-02-04T19:21:28.833Z,1.10
2023-02-04T19:24:02.607Z,1.07
2023-02-04T19:26:34.740Z,1.00
2023-02-04T19:29:22.839Z,0.80
2023-02-04T19:31:53.340Z,1.13
2023-02-04T19:34:26.085Z,1.10
2023-02-04T19:36:56.098Z,0.80
2023-02-04T19:39:31.737Z,0.70
2023-02-04T19:41:59.531Z,0.50
2023-02-04T19:44:37.034Z,1.33
2023-02-04T19:47:29.352Z,0.90
2023-02-04T19:50:03.330Z,0.77
2023-02-04T19:52:36.405Z,0.60
2023-02-04T19:55:32.765Z,0.70
2023-02-04T19:58:04.041Z,0.60
2023-02-04T20:00:44.827Z,0.70
2023-02-04T20:03:35.740Z,0.60
2023-02-04T20:06:27.345Z,0.30
2023-02-04T20:09:05.434Z,0.30
2023-02-04T20:11:56.953Z,0.13
2023-02-04T20:14:36.586Z,0.40
2023-02-04T20:17:13.797Z,0.50
2023-02-04T20:19:42.509Z,0.40
2023-02-04T20:22:30.086Z,0.60
2023-02-04T20:25:07.551Z,0.60
2023-02-04T20:27:38.676Z,0.63
2023-02-04T20:30:26.466Z,0.47
2023-02-04T20:32:56.225Z,0.30
2023-02-04T20:36:00.364Z,0.37
2023-02-04T20:38:28.118Z,0.30
2023-02-04T20:40:57.286Z,0.23
2023-02-04T20:43:25.046Z,0.50
2023-02-04T20:45:55.825Z,0.30
2023-02-04T20:48:32.713Z,0.40
2023-02-04T20:51:03.860Z,0.23
2023-02-04T20:53:38.597Z,0.20
2023-02-04T20:56:23.602Z,0.40
2023-02-04T20:58:52.741Z,0.30
2023-02-04T21:01:29.607Z,0.57
2023-02-04T21:03:59.270Z,0.20
2023-02-04T21:06:31.505Z,0.40
2023-02-04T21:09:00.602Z,0.40
2023-02-04T21:11:29.709Z,0.50
2023-02-04T21:13:57.580Z,0.30
2023-02-04T21:16:25.369Z,0.40
2023-02-04T21:18:54.667Z,0.27
2023-02-04T21:21:24.410Z,0.40
2023-02-04T21:23:52.221Z,0.40
2023-02-04T21:26:20.004Z,0.30
2023-02-04T21:28:50.492Z,0.20
2023-02-04T21:31:18.364Z,0.30
2023-02-04T21:33:46.202Z,0.10
2023-02-04T21:36:14.037Z,0.50
2023-02-04T21:38:42.031Z,0.40
2023-02-04T21:41:09.845Z,0.63
2023-02-04T21:43:37.593Z,0.80
2023-02-04T21:46:06.870Z,0.50
2023-02-04T21:48:34.646Z,0.80
2023-02-04T21:51:02.443Z,0.70
2023-02-04T21:53:30.210Z,0.70
2023-02-04T21:55:59.354Z,0.57
2023-02-04T21:58:27.409Z,0.57
2023-02-04T22:00:55.256Z,0.57
2023-02-04T22:03:24.531Z,0.87
2023-02-04T22:05:52.380Z,0.47
2023-02-04T22:08:20.239Z,0.37
2023-02-04T22:10:48.039Z,0.23
2023-02-04T22:13:15.851Z,0.50
2023-02-04T22:15:43.624Z,0.40
2023-02-04T22:18:12.068Z,0.40
2023-02-04T22:20:41.226Z,0.20
2023-02-04T22:23:08.996Z,0.60
2023-02-04T22:25:36.804Z,0.50
2023-02-04T22:28:04.743Z,0.40
2023-02-04T22:30:32.554Z,0.40
2023-02-04T22:33:02.299Z,0.50
2023-02-04T22:35:34.911Z,0.63
2023-02-04T22:38:04.512Z,0.40
2023-02-04T22:40:32.272Z,0.27
2023-02-04T22:43:00.115Z,0.20
2023-02-04T22:45:27.869Z,0.37
2023-02-04T22:47:55.633Z,0.47
2023-02-04T22:50:23.499Z,0.77
2023-02-04T22:52:51.279Z,0.20
2023-02-04T22:55:20.429Z,0.20
2023-02-04T22:57:48.198Z,0.13
2023-02-04T23:00:16.916Z,0.20
2023-02-04T23:02:44.688Z,0.33
2023-02-04T23:05:12.414Z,0.17
2023-02-04T23:07:40.190Z,0.40
2023-02-04T23:10:09.035Z,0.50
2023-02-04T23:12:38.195Z,0.30
2023-02-04T23:15:06.517Z,0.17
2023-02-04T23:17:34.281Z,0.30
2023-02-04T23:20:02.033Z,0.20
2023-02-04T23:22:30.122Z,0.47
2023-02-04T23:24:58.392Z,0.40
2023-02-04T23:27:26.314Z,0.30
2023-02-04T23:29:55.495Z,0.63
2023-02-04T23:32:24.337Z,0.17
2023-02-04T23:34:52.095Z,0.20
2023-02-04T23:37:19.917Z,0.30
2023-02-04T23:39:47.760Z,0.40
2023-02-04T23:42:15.537Z,0.30
2023-02-04T23:44:43.325Z,0.30
2023-02-04T23:47:12.426Z,0.40
2023-02-04T23:49:40.185Z,0.20
2023-02-04T23:52:08.123Z,0.20
2023-02-04T23:54:36.405Z,0.30
2023-02-04T23:57:04.442Z,0.30
2023-02-04T23:59:32.290Z,0.70
